createdAt,value
2019-02-04T00:00:07.664Z,65.67
2019-02-04T00:01:07.220Z,64.94
2019-02-04T00:02:07.389Z,65.43
2019-02-04T00:03:07.551Z,65.67
2019-02-04T00:04:07.716Z,65.67
2019-02-04T00:05:07.882Z,66.16
2019-02-04T00:06:08.051Z,65.67
2019-02-04T00:07:08.216Z,65.43
2019-02-04T00:08:08.379Z,65.67
2019-02-04T00:09:08.542Z,66.16
2019-02-04T00:10:08.708Z,66.41
2019-02-04T00:11:08.807Z,65.92
2019-02-04T00:12:08.972Z,65.92
2019-02-04T00:13:09.136Z,65.92
2019-02-04T00:14:09.297Z,65.43
2019-02-04T00:15:09.467Z,65.67
2019-02-04T00:16:09.642Z,65.67
2019-02-04T00:17:09.791Z,65.43
2019-02-04T00:18:09.954Z,65.67
2019-02-04T00:19:10.108Z,65.67
2019-02-04T00:20:10.276Z,65.67
2019-02-04T00:21:10.464Z,65.67
2019-02-04T00:22:10.601Z,66.41
2019-02-04T00:23:10.783Z,65.67
2019-02-04T00:24:10.944Z,66.16
2019-02-04T00:25:11.119Z,66.16
2019-02-04T00:26:11.300Z,65.92
2019-02-04T00:27:11.443Z,66.16
2019-02-04T00:28:11.614Z,65.92
2019-02-04T00:29:11.789Z,65.67
2019-02-04T00:30:11.950Z,65.92
2019-02-04T00:31:12.136Z,65.67
2019-02-04T00:32:12.306Z,65.67
2019-02-04T00:33:12.580Z,65.43
2019-02-04T00:34:12.617Z,65.92
2019-02-04T00:35:12.780Z,66.41
2019-02-04T00:36:12.941Z,66.16
2019-02-04T00:37:13.127Z,66.16
2019-02-04T00:38:13.266Z,66.16
2019-02-04T00:39:13.436Z,66.16
2019-02-04T00:40:13.590Z,66.41
2019-02-04T00:41:13.753Z,66.65
2019-02-04T00:42:13.917Z,66.41
2019-02-04T00:43:14.074Z,66.89
2019-02-04T00:44:14.235Z,66.41
2019-02-04T00:45:14.403Z,66.16
2019-02-04T00:46:14.566Z,66.41
2019-02-04T00:47:14.736Z,66.41
2019-02-04T00:48:14.908Z,66.16
2019-02-04T00:49:15.053Z,66.41
2019-02-04T00:50:15.225Z,66.16
2019-02-04T00:51:15.379Z,66.16
2019-02-04T00:52:15.555Z,66.16
2019-02-04T00:53:15.712Z,66.41
2019-02-04T00:54:15.874Z,66.16
2019-02-04T00:55:16.040Z,66.89
2019-02-04T00:56:16.203Z,66.41
2019-02-04T00:57:16.376Z,66.16
2019-02-04T00:58:16.539Z,66.41
2019-02-04T00:59:16.700Z,66.41
2019-02-04T01:00:16.858Z,66.41
2019-02-04T01:01:17.032Z,66.65
2019-02-04T01:02:17.179Z,65.92
2019-02-04T01:03:17.349Z,66.16
2019-02-04T01:04:17.510Z,66.41
2019-02-04T01:05:17.679Z,66.89
2019-02-04T01:06:17.851Z,66.41
2019-02-04T01:07:18.013Z,66.41
2019-02-04T01:08:18.190Z,66.65
2019-02-04T01:09:18.442Z,66.65
2019-02-04T01:10:18.525Z,66.65
2019-02-04T01:11:18.697Z,66.41
2019-02-04T01:12:18.864Z,66.41
2019-02-04T01:13:19.044Z,66.41
2019-02-04T01:14:19.185Z,66.16
2019-02-04T01:15:19.353Z,66.65
2019-02-04T01:16:19.513Z,66.65
2019-02-04T01:17:19.679Z,65.92
2019-02-04T01:18:19.852Z,66.89
2019-02-04T01:19:20.040Z,66.16
2019-02-04T01:20:20.180Z,66.41
2019-02-04T01:21:20.340Z,65.92
2019-02-04T01:22:20.502Z,65.92
2019-02-04T01:23:20.673Z,66.41
2019-02-04T01:24:20.846Z,66.41
2019-02-04T01:25:21.007Z,66.65
2019-02-04T01:26:21.179Z,66.16
2019-02-04T01:27:21.336Z,66.41
2019-02-04T01:28:21.492Z,66.65
2019-02-04T01:29:21.654Z,66.65
2019-02-04T01:30:21.829Z,66.41
2019-02-04T01:31:21.975Z,66.65
2019-02-04T01:32:22.133Z,66.41
2019-02-04T01:33:22.295Z,66.65
2019-02-04T01:34:22.458Z,65.67
2019-02-04T01:35:22.623Z,65.67
2019-02-04T01:36:22.796Z,66.16
2019-02-04T01:37:22.961Z,65.67
2019-02-04T01:38:23.137Z,66.65
2019-02-04T01:39:23.288Z,66.65
2019-02-04T01:40:23.447Z,66.16
2019-02-04T01:41:23.604Z,66.41
2019-02-04T01:42:23.764Z,66.16
2019-02-04T01:43:23.945Z,66.41
2019-02-04T01:44:24.099Z,66.65
2019-02-04T01:45:24.265Z,66.65
2019-02-04T01:46:24.436Z,66.41
2019-02-04T01:47:24.579Z,66.16
2019-02-04T01:48:24.749Z,66.41
2019-02-04T01:49:24.922Z,66.65
2019-02-04T01:50:25.087Z,66.16
2019-02-04T01:51:25.261Z,66.16
2019-02-04T01:52:25.417Z,66.16
2019-02-04T01:53:25.582Z,65.92
2019-02-04T01:54:25.749Z,66.41
2019-02-04T01:55:25.926Z,66.16
2019-02-04T01:56:26.084Z,65.92
2019-02-04T01:57:26.263Z,66.16
2019-02-04T01:58:26.417Z,66.41
2019-02-04T01:59:26.582Z,66.16
2019-02-04T02:00:26.747Z,66.41
2019-02-04T02:01:26.909Z,66.16
2019-02-04T02:02:27.077Z,66.41
2019-02-04T02:03:27.238Z,66.16
2019-02-04T02:04:27.400Z,66.16
2019-02-04T02:05:27.614Z,66.41
2019-02-04T02:06:27.729Z,65.92
2019-02-04T02:07:27.906Z,66.41
2019-02-04T02:08:28.057Z,66.89
2019-02-04T02:09:28.221Z,66.41
2019-02-04T02:10:28.393Z,65.92
2019-02-04T02:11:28.556Z,66.16
2019-02-04T02:12:28.716Z,65.67
2019-02-04T02:13:28.887Z,66.65
2019-02-04T02:14:29.039Z,65.92
2019-02-04T02:15:29.214Z,66.16
2019-02-04T02:16:29.381Z,66.16
2019-02-04T02:17:29.550Z,66.41
2019-02-04T02:18:29.723Z,66.41
2019-02-04T02:19:29.880Z,66.41
2019-02-04T02:20:30.063Z,65.92
2019-02-04T02:21:30.208Z,65.92
2019-02-04T02:22:30.360Z,66.65
2019-02-04T02:23:30.532Z,65.92
2019-02-04T02:24:30.700Z,66.16
2019-02-04T02:25:30.864Z,65.92
2019-02-04T02:26:31.023Z,65.43
2019-02-04T02:27:31.179Z,65.43
2019-02-04T02:28:31.351Z,66.16
2019-02-04T02:29:31.519Z,65.43
2019-02-04T02:30:31.691Z,65.43
2019-02-04T02:31:31.834Z,65.43
2019-02-04T02:32:32.000Z,65.92
2019-02-04T02:33:32.184Z,65.43
2019-02-04T02:34:32.332Z,65.43
2019-02-04T02:35:32.491Z,66.41
2019-02-04T02:36:32.656Z,65.67
2019-02-04T02:37:32.815Z,65.92
2019-02-04T02:38:32.985Z,65.67
2019-02-04T02:39:33.145Z,65.92
2019-02-04T02:40:33.295Z,65.43
2019-02-04T02:41:33.453Z,65.43
2019-02-04T02:42:33.621Z,65.43
2019-02-04T02:43:33.780Z,65.67
2019-02-04T02:44:33.950Z,65.92
2019-02-04T02:45:34.129Z,65.67
2019-02-04T02:46:34.293Z,65.92
2019-02-04T02:47:38.384Z,66.16
2019-02-04T02:48:34.603Z,65.67
2019-02-04T02:49:34.760Z,65.43
2019-02-04T02:50:34.922Z,65.92
2019-02-04T02:51:35.088Z,65.43
2019-02-04T02:52:35.254Z,65.67
2019-02-04T02:53:35.422Z,65.67
2019-02-04T02:54:35.592Z,65.19
2019-02-04T02:55:35.786Z,65.67
2019-02-04T02:56:35.934Z,65.67
2019-02-04T02:57:36.096Z,65.92
2019-02-04T02:58:36.256Z,65.67
2019-02-04T02:59:36.419Z,65.67
2019-02-04T03:00:36.582Z,65.92
2019-02-04T03:01:36.752Z,65.67
2019-02-04T03:02:36.939Z,65.43
2019-02-04T03:03:37.102Z,65.92
2019-02-04T03:04:37.261Z,65.67
2019-02-04T03:05:37.422Z,65.43
2019-02-04T03:06:37.582Z,65.92
2019-02-04T03:07:37.744Z,65.92
2019-02-04T03:08:37.906Z,65.92
2019-02-04T03:09:38.065Z,65.67
2019-02-04T03:10:38.230Z,65.92
2019-02-04T03:11:38.384Z,65.92
2019-02-04T03:12:38.580Z,66.16
2019-02-04T03:13:38.717Z,65.43
2019-02-04T03:14:38.882Z,65.67
2019-02-04T03:15:39.025Z,65.43
2019-02-04T03:16:39.188Z,65.92
2019-02-04T03:17:50.551Z,65.92
2019-02-04T03:18:39.523Z,65.67
2019-02-04T03:19:39.680Z,65.67
2019-02-04T03:20:39.849Z,65.67
2019-02-04T03:21:40.008Z,65.67
2019-02-04T03:22:40.185Z,65.92
2019-02-04T03:23:40.345Z,65.43
2019-02-04T03:24:40.509Z,65.92
2019-02-04T03:25:40.663Z,65.92
2019-02-04T03:26:40.822Z,66.16
2019-02-04T03:27:40.982Z,65.67
2019-02-04T03:28:41.140Z,65.92
2019-02-04T03:29:41.304Z,65.67
2019-02-04T03:30:41.463Z,65.92
2019-02-04T03:31:45.719Z,65.43
2019-02-04T03:32:41.788Z,65.67
2019-02-04T03:33:41.941Z,65.67
2019-02-04T03:34:42.099Z,65.92
2019-02-04T03:35:42.257Z,66.16
2019-02-04T03:36:42.457Z,66.16
2019-02-04T03:37:42.734Z,65.92
2019-02-04T03:38:42.779Z,65.67
2019-02-04T03:39:43.033Z,66.41
2019-02-04T03:40:43.147Z,65.92
2019-02-04T03:41:43.278Z,66.16
2019-02-04T03:42:43.323Z,66.16
2019-02-04T03:43:43.921Z,65.67
2019-02-04T03:44:43.785Z,65.67
2019-02-04T03:45:43.979Z,66.16
2019-02-04T03:46:44.331Z,66.16
2019-02-04T03:47:44.198Z,66.16
2019-02-04T03:48:44.258Z,66.41
2019-02-04T03:49:44.424Z,66.16
2019-02-04T03:50:44.594Z,66.41
2019-02-04T03:51:44.746Z,66.16
2019-02-04T03:52:44.912Z,65.92
2019-02-04T03:53:45.100Z,65.92
2019-02-04T03:54:45.284Z,65.92
2019-02-04T03:55:45.452Z,65.92
2019-02-04T03:56:45.626Z,65.67
2019-02-04T03:57:45.782Z,65.92
2019-02-04T03:58:45.941Z,65.92
2019-02-04T03:59:46.123Z,65.92
2019-02-04T04:00:46.263Z,65.67
2019-02-04T04:01:46.436Z,65.67
2019-02-04T04:02:46.593Z,65.92
2019-02-04T04:03:46.771Z,65.67
2019-02-04T04:04:46.925Z,66.16
2019-02-04T04:05:47.099Z,65.92
2019-02-04T04:06:47.245Z,66.41
2019-02-04T04:07:47.420Z,66.16
2019-02-04T04:08:47.583Z,65.92
2019-02-04T04:09:47.745Z,65.92
2019-02-04T04:10:47.916Z,66.65
2019-02-04T04:11:48.069Z,66.16
2019-02-04T04:12:48.245Z,65.92
2019-02-04T04:13:48.410Z,66.41
2019-02-04T04:14:48.568Z,66.16
2019-02-04T04:15:48.729Z,66.16
2019-02-04T04:16:48.910Z,66.16
2019-02-04T04:17:49.057Z,65.92
2019-02-04T04:18:49.233Z,66.16
2019-02-04T04:19:49.394Z,66.16
2019-02-04T04:20:49.558Z,65.92
2019-02-04T04:21:49.713Z,65.92
2019-02-04T04:22:49.879Z,66.16
2019-02-04T04:23:50.044Z,65.67
2019-02-04T04:24:50.204Z,65.92
2019-02-04T04:25:50.371Z,65.67
2019-02-04T04:26:50.524Z,65.92
2019-02-04T04:27:50.693Z,66.41
2019-02-04T04:28:50.850Z,65.92
2019-02-04T04:29:51.036Z,67.38
2019-02-04T04:30:51.174Z,66.41
2019-02-04T04:31:51.341Z,67.14
2019-02-04T04:32:51.496Z,65.43
2019-02-04T04:33:51.665Z,65.92
2019-02-04T04:34:51.817Z,66.16
2019-02-04T04:35:51.980Z,65.67
2019-02-04T04:36:52.146Z,65.67
2019-02-04T04:37:52.313Z,66.41
2019-02-04T04:38:52.468Z,65.92
2019-02-04T04:39:52.633Z,66.16
2019-02-04T04:40:52.786Z,65.92
2019-02-04T04:41:52.957Z,65.67
2019-02-04T04:42:53.111Z,65.92
2019-02-04T04:43:53.316Z,65.92
2019-02-04T04:44:53.491Z,66.16
2019-02-04T04:45:53.638Z,66.41
2019-02-04T04:46:53.796Z,66.16
2019-02-04T04:47:53.949Z,66.65
2019-02-04T04:48:55.688Z,65.92
2019-02-04T04:49:54.274Z,65.67
2019-02-04T04:50:54.449Z,65.92
2019-02-04T04:51:54.622Z,66.16
2019-02-04T04:52:54.782Z,66.16
2019-02-04T04:53:54.944Z,65.19
2019-02-04T04:54:55.100Z,66.89
2019-02-04T04:55:55.260Z,67.14
2019-02-04T04:56:55.417Z,65.92
2019-02-04T04:57:55.608Z,66.41
2019-02-04T04:58:55.728Z,66.41
2019-02-04T04:59:55.892Z,66.41
2019-02-04T05:00:56.060Z,66.41
2019-02-04T05:01:56.229Z,66.89
2019-02-04T05:02:56.390Z,65.92
2019-02-04T05:03:56.570Z,65.92
2019-02-04T05:04:56.771Z,65.67
2019-02-04T05:05:56.928Z,65.92
2019-02-04T05:06:57.092Z,66.41
2019-02-04T05:07:57.253Z,66.16
2019-02-04T05:08:57.419Z,66.41
2019-02-04T05:09:57.577Z,66.65
2019-02-04T05:10:57.750Z,66.16
2019-02-04T05:11:57.903Z,66.16
2019-02-04T05:12:58.063Z,66.65
2019-02-04T05:13:58.248Z,66.41
2019-02-04T05:14:58.400Z,66.16
2019-02-04T05:15:58.630Z,67.63
2019-02-04T05:16:58.743Z,67.87
2019-02-04T05:17:58.916Z,66.89
2019-02-04T05:18:59.524Z,67.38
2019-02-04T05:19:59.156Z,66.16
2019-02-04T05:20:59.317Z,67.87
2019-02-04T05:21:59.486Z,66.65
2019-02-04T05:22:59.644Z,66.41
2019-02-04T05:23:59.824Z,66.89
2019-02-04T05:24:59.998Z,67.63
2019-02-04T05:26:00.156Z,65.67
2019-02-04T05:27:00.320Z,67.87
2019-02-04T05:28:00.517Z,67.63
2019-02-04T05:29:00.575Z,66.41
2019-02-04T05:30:00.755Z,67.38
2019-02-04T05:31:00.918Z,67.14
2019-02-04T05:32:01.076Z,67.63
2019-02-04T05:33:01.237Z,66.65
2019-02-04T05:34:01.406Z,67.63
2019-02-04T05:35:01.571Z,66.16
2019-02-04T05:36:01.744Z,66.89
2019-02-04T05:37:01.929Z,67.14
2019-02-04T05:38:02.074Z,67.38
2019-02-04T05:39:02.279Z,66.16
2019-02-04T05:40:02.354Z,66.16
2019-02-04T05:41:02.507Z,66.16
2019-02-04T05:42:02.670Z,65.92
2019-02-04T05:43:02.832Z,66.16
2019-02-04T05:44:02.995Z,65.67
2019-02-04T05:45:03.251Z,65.67
2019-02-04T05:46:03.304Z,66.16
2019-02-04T05:47:03.474Z,65.92
2019-02-04T05:48:03.615Z,66.16
2019-02-04T05:49:03.791Z,66.16
2019-02-04T05:50:03.956Z,65.67
2019-02-04T05:51:04.111Z,65.67
2019-02-04T05:52:04.307Z,65.67
2019-02-04T05:53:04.435Z,65.43
2019-02-04T05:54:04.599Z,65.92
2019-02-04T05:55:04.763Z,65.43
2019-02-04T05:56:04.965Z,65.67
2019-02-04T05:57:05.019Z,65.43
2019-02-04T05:58:05.186Z,65.43
2019-02-04T05:59:05.423Z,65.67
2019-02-04T06:00:05.436Z,65.67
2019-02-04T06:01:05.603Z,65.67
2019-02-04T06:02:05.788Z,65.67
2019-02-04T06:03:06.039Z,65.67
2019-02-04T06:04:06.114Z,65.92
2019-02-04T06:05:06.306Z,65.43
2019-02-04T06:06:06.484Z,65.43
2019-02-04T06:07:07.376Z,65.43
2019-02-04T06:08:06.787Z,65.43
2019-02-04T06:09:06.948Z,64.45
2019-02-04T06:10:07.170Z,64.21
2019-02-04T06:11:07.371Z,64.70
2019-02-04T06:12:07.410Z,64.21
2019-02-04T06:13:07.569Z,64.45
2019-02-04T06:14:07.731Z,65.92
2019-02-04T06:15:07.881Z,64.70
2019-02-04T06:16:08.138Z,65.19
2019-02-04T06:17:08.183Z,65.19
2019-02-04T06:18:08.353Z,65.43
2019-02-04T06:19:08.534Z,68.12
2019-02-04T06:20:08.719Z,65.19
2019-02-04T06:21:08.876Z,65.92
2019-02-04T06:22:09.170Z,65.43
2019-02-04T06:23:09.213Z,67.14
2019-02-04T06:24:09.374Z,65.67
2019-02-04T06:25:09.558Z,68.60
2019-02-04T06:26:09.847Z,65.43
2019-02-04T06:27:10.412Z,65.43
2019-02-04T06:28:10.082Z,65.67
2019-02-04T06:29:10.268Z,65.19
2019-02-04T06:30:10.411Z,65.19
2019-02-04T06:31:10.620Z,65.43
2019-02-04T06:32:10.788Z,65.43
2019-02-04T06:33:11.113Z,65.43
2019-02-04T06:34:11.080Z,65.43
2019-02-04T06:35:11.263Z,65.67
2019-02-04T06:36:11.440Z,65.67
2019-02-04T06:37:11.581Z,64.94
2019-02-04T06:38:11.738Z,65.19
2019-02-04T06:39:11.895Z,64.94
2019-02-04T06:40:12.066Z,64.94
2019-02-04T06:41:12.223Z,65.43
2019-02-04T06:42:12.383Z,64.45
2019-02-04T06:43:12.545Z,64.70
2019-02-04T06:44:12.705Z,65.43
2019-02-04T06:45:13.088Z,65.67
2019-02-04T06:46:13.070Z,65.19
2019-02-04T06:47:13.244Z,65.19
2019-02-04T06:48:13.401Z,65.19
2019-02-04T06:49:13.585Z,64.94
2019-02-04T06:50:13.798Z,65.19
2019-02-04T06:51:13.961Z,65.67
2019-02-04T06:52:14.151Z,64.94
2019-02-04T06:53:14.295Z,65.19
2019-02-04T06:54:14.449Z,65.19
2019-02-04T06:55:14.614Z,65.43
2019-02-04T06:56:14.790Z,64.94
2019-02-04T06:57:15.010Z,64.94
2019-02-04T06:58:15.168Z,64.70
2019-02-04T06:59:15.472Z,64.70
2019-02-04T07:00:15.513Z,64.94
2019-02-04T07:01:15.677Z,65.19
2019-02-04T07:02:15.847Z,65.19
2019-02-04T07:03:16.014Z,64.70
2019-02-04T07:04:16.179Z,65.67
2019-02-04T07:05:16.363Z,64.70
2019-02-04T07:06:16.524Z,64.45
2019-02-04T07:07:16.697Z,64.70
2019-02-04T07:08:17.144Z,64.70
2019-02-04T07:09:17.261Z,64.70
2019-02-04T07:10:17.427Z,64.45
2019-02-04T07:11:17.654Z,64.70
2019-02-04T07:12:17.735Z,64.70
2019-02-04T07:13:17.775Z,64.70
2019-02-04T07:14:17.886Z,64.70
2019-02-04T07:15:18.120Z,64.21
2019-02-04T07:16:18.125Z,64.45
2019-02-04T07:17:18.659Z,64.45
2019-02-04T07:18:18.351Z,64.21
2019-02-04T07:19:24.453Z,64.70
2019-02-04T07:20:18.877Z,64.70
2019-02-04T07:21:21.051Z,64.21
2019-02-04T07:22:19.205Z,75.68
2019-02-04T07:23:19.399Z,64.70
2019-02-04T07:24:19.661Z,87.65
2019-02-04T07:25:20.038Z,64.21
2019-02-04T07:26:19.777Z,63.96
2019-02-04T07:27:22.410Z,63.72
2019-02-04T07:28:20.098Z,63.96
2019-02-04T07:29:20.547Z,64.21
2019-02-04T07:30:20.652Z,64.70
2019-02-04T07:31:20.713Z,64.45
2019-02-04T07:32:20.649Z,64.94
2019-02-04T07:33:20.818Z,64.94
2019-02-04T07:34:20.980Z,63.96
2019-02-04T07:35:21.141Z,64.70
2019-02-04T07:36:21.305Z,63.48
2019-02-04T07:37:21.482Z,63.72
2019-02-04T07:38:21.643Z,63.72
2019-02-04T07:39:21.803Z,63.23
2019-02-04T07:40:21.970Z,63.23
2019-02-04T07:41:22.122Z,63.72
2019-02-04T07:42:22.278Z,63.48
2019-02-04T07:43:22.448Z,62.99
2019-02-04T07:44:22.614Z,64.70
2019-02-04T07:45:22.788Z,65.67
2019-02-04T07:46:25.016Z,66.65
2019-02-04T07:47:23.117Z,63.96
2019-02-04T07:48:23.279Z,62.50
2019-02-04T07:49:34.725Z,63.23
2019-02-04T07:50:23.605Z,62.74
2019-02-04T07:51:23.770Z,61.04
2019-02-04T07:52:23.935Z,60.06
2019-02-04T07:53:24.096Z,58.35
2019-02-04T07:54:24.285Z,61.77
2019-02-04T07:55:24.494Z,62.01
2019-02-04T07:56:24.620Z,58.59
2019-02-04T07:57:24.814Z,59.08
2019-02-04T07:58:24.985Z,59.57
2019-02-04T07:59:25.153Z,59.81
2019-02-04T08:00:25.326Z,60.79
2019-02-04T08:01:25.498Z,59.33
2019-02-04T08:02:25.664Z,59.33
2019-02-04T08:03:25.840Z,59.81
2019-02-04T08:04:25.988Z,59.81
2019-02-04T08:05:26.179Z,60.30
2019-02-04T08:06:26.323Z,59.33
2019-02-04T08:07:26.496Z,59.08
2019-02-04T08:08:26.655Z,59.08
2019-02-04T08:09:26.829Z,58.11
2019-02-04T08:10:27.013Z,59.81
2019-02-04T08:11:27.194Z,58.59
2019-02-04T08:12:27.335Z,58.59
2019-02-04T08:13:27.625Z,58.11
2019-02-04T08:14:27.621Z,59.33
2019-02-04T08:15:27.786Z,58.59
2019-02-04T08:16:28.040Z,59.08
2019-02-04T08:17:28.081Z,70.56
2019-02-04T08:18:28.253Z,59.81
2019-02-04T08:19:28.456Z,59.08
2019-02-04T08:20:28.634Z,60.79
2019-02-04T08:21:28.801Z,58.84
2019-02-04T08:22:28.968Z,59.57
2019-02-04T08:23:29.137Z,59.33
2019-02-04T08:24:29.742Z,59.08
2019-02-04T08:25:29.466Z,59.33
2019-02-04T08:26:29.642Z,59.08
2019-02-04T08:27:29.796Z,63.72
2019-02-04T08:28:29.962Z,67.14
2019-02-04T08:29:30.130Z,64.21
2019-02-04T08:30:30.302Z,59.33
2019-02-04T08:31:30.458Z,58.84
2019-02-04T08:32:30.636Z,57.86
2019-02-04T08:33:30.801Z,61.28
2019-02-04T08:34:30.971Z,61.28
2019-02-04T08:35:31.148Z,60.30
2019-02-04T08:36:43.050Z,59.81
2019-02-04T08:37:31.499Z,59.33
2019-02-04T08:38:31.663Z,60.55
2019-02-04T08:39:31.822Z,58.35
2019-02-04T08:40:31.988Z,60.30
2019-02-04T08:41:32.162Z,59.33
2019-02-04T08:42:35.306Z,59.57
2019-02-04T08:43:32.500Z,59.08
2019-02-04T08:44:32.668Z,59.08
2019-02-04T08:45:32.842Z,67.38
2019-02-04T08:46:33.030Z,81.05
2019-02-04T08:47:33.194Z,59.81
2019-02-04T08:48:33.356Z,58.84
2019-02-04T08:49:33.676Z,57.37
2019-02-04T08:50:33.683Z,59.57
2019-02-04T08:51:33.830Z,59.08
2019-02-04T08:52:33.986Z,59.81
2019-02-04T08:53:34.158Z,64.45
2019-02-04T08:54:34.305Z,58.59
2019-02-04T08:55:34.658Z,60.06
2019-02-04T08:56:34.610Z,63.23
2019-02-04T08:57:34.773Z,58.84
2019-02-04T08:58:34.973Z,60.30
2019-02-04T08:59:35.146Z,59.81
2019-02-04T09:00:35.314Z,59.57
2019-02-04T09:01:35.495Z,59.33
2019-02-04T09:02:36.146Z,59.33
2019-02-04T09:03:35.874Z,58.35
2019-02-04T09:04:37.161Z,59.08
2019-02-04T09:05:36.255Z,60.55
2019-02-04T09:06:36.427Z,60.30
2019-02-04T09:07:36.609Z,58.84
2019-02-04T09:08:36.773Z,59.81
2019-02-04T09:09:36.942Z,58.59
2019-02-04T09:10:37.112Z,60.06
2019-02-04T09:11:37.265Z,60.06
2019-02-04T09:12:37.426Z,59.57
2019-02-04T09:13:37.914Z,61.52
2019-02-04T09:14:37.828Z,66.65
2019-02-04T09:15:39.742Z,59.08
2019-02-04T09:16:38.197Z,59.57
2019-02-04T09:17:38.356Z,59.33
2019-02-04T09:18:44.764Z,59.33
2019-02-04T09:19:38.706Z,61.04
2019-02-04T09:20:38.868Z,61.77
2019-02-04T09:21:39.392Z,60.30
2019-02-04T09:22:39.159Z,60.30
2019-02-04T09:23:39.318Z,75.93
2019-02-04T09:24:39.827Z,60.30
2019-02-04T09:25:39.690Z,60.55
2019-02-04T09:26:40.499Z,87.65
2019-02-04T09:27:40.602Z,71.29
2019-02-04T09:28:41.008Z,66.16
2019-02-04T09:29:40.341Z,74.95
2019-02-04T09:30:40.518Z,59.81
2019-02-04T09:31:40.821Z,60.79
2019-02-04T09:32:40.879Z,61.52
2019-02-04T09:33:41.086Z,60.55
2019-02-04T09:34:41.251Z,63.23
2019-02-04T09:35:41.447Z,62.50
2019-02-04T09:36:41.594Z,63.72
2019-02-04T09:37:41.762Z,59.81
2019-02-04T09:38:41.938Z,61.52
2019-02-04T09:39:42.290Z,63.48
2019-02-04T09:40:42.635Z,62.01
2019-02-04T09:41:42.682Z,61.28
2019-02-04T09:42:43.097Z,61.28
2019-02-04T09:43:44.318Z,61.04
2019-02-04T09:44:43.338Z,61.04
2019-02-04T09:45:43.086Z,60.06
2019-02-04T09:46:43.262Z,60.55
2019-02-04T09:47:43.740Z,60.06
2019-02-04T09:48:44.556Z,60.55
2019-02-04T09:49:43.768Z,62.50
2019-02-04T09:50:43.858Z,60.06
2019-02-04T09:51:44.029Z,60.79
2019-02-04T09:52:44.222Z,61.52
2019-02-04T09:53:44.594Z,58.11
2019-02-04T09:54:44.577Z,61.52
2019-02-04T09:55:44.651Z,60.06
2019-02-04T09:56:44.973Z,61.04
2019-02-04T09:57:46.101Z,62.26
2019-02-04T09:58:45.917Z,59.08
2019-02-04T09:59:46.546Z,62.01
2019-02-04T10:00:45.911Z,59.81
2019-02-04T10:01:46.784Z,59.57
2019-02-04T10:02:45.749Z,58.84
2019-02-04T10:03:45.916Z,59.08
2019-02-04T10:04:47.435Z,60.06
2019-02-04T10:05:46.282Z,59.08
2019-02-04T10:06:47.083Z,60.06
2019-02-04T10:07:47.747Z,59.33
2019-02-04T10:08:47.314Z,60.06
2019-02-04T10:09:46.932Z,60.79
2019-02-04T10:10:47.262Z,61.04
2019-02-04T10:11:47.892Z,59.81
2019-02-04T10:12:48.371Z,59.57
2019-02-04T10:13:48.192Z,60.30
2019-02-04T10:14:47.790Z,60.06
2019-02-04T10:15:47.940Z,61.52
2019-02-04T10:16:48.323Z,61.28
2019-02-04T10:17:48.286Z,61.04
2019-02-04T10:18:50.827Z,60.55
2019-02-04T10:19:50.657Z,59.33
2019-02-04T10:20:49.803Z,60.79
2019-02-04T10:21:49.060Z,60.79
2019-02-04T10:22:50.571Z,58.59
2019-02-04T10:23:50.616Z,58.11
2019-02-04T10:24:49.986Z,59.57
2019-02-04T10:25:52.087Z,60.06
2019-02-04T10:26:50.403Z,61.52
2019-02-04T10:27:51.929Z,60.30
2019-02-04T10:28:51.445Z,61.28
2019-02-04T10:29:51.323Z,60.06
2019-02-04T10:30:51.383Z,57.86
2019-02-04T10:31:51.886Z,59.57
2019-02-04T10:32:50.676Z,61.04
2019-02-04T10:33:50.724Z,60.06
2019-02-04T10:34:50.999Z,58.84
2019-02-04T10:35:51.955Z,59.08
2019-02-04T10:36:52.482Z,60.06
2019-02-04T10:37:51.987Z,60.30
2019-02-04T10:38:52.921Z,58.59
2019-02-04T10:39:53.447Z,61.28
2019-02-04T10:40:52.491Z,60.30
2019-02-04T10:41:53.427Z,61.77
2019-02-04T10:42:52.392Z,57.37
2019-02-04T10:43:54.437Z,60.06
2019-02-04T10:44:53.251Z,59.81
2019-02-04T10:45:54.548Z,58.84
2019-02-04T10:46:54.445Z,57.86
2019-02-04T10:47:53.862Z,58.59
2019-02-04T10:48:53.797Z,60.06
2019-02-04T10:49:53.503Z,59.33
2019-02-04T10:50:54.839Z,58.35
2019-02-04T10:51:53.854Z,59.33
2019-02-04T10:52:55.176Z,60.30
2019-02-04T10:53:56.671Z,61.77
2019-02-04T10:54:55.818Z,59.81
2019-02-04T10:55:55.396Z,61.52
2019-02-04T10:56:55.091Z,61.52
2019-02-04T10:57:55.475Z,58.59
2019-02-04T10:58:56.446Z,59.81
2019-02-04T10:59:56.475Z,58.59
2019-02-04T11:00:56.690Z,58.11
2019-02-04T11:01:56.725Z,60.30
2019-02-04T11:02:55.701Z,59.08
2019-02-04T11:03:55.985Z,57.86
2019-02-04T11:04:56.028Z,58.59
2019-02-04T11:05:56.213Z,60.79
2019-02-04T11:06:56.330Z,61.28
2019-02-04T11:07:56.498Z,60.06
2019-02-04T11:08:56.684Z,61.04
2019-02-04T11:09:56.837Z,61.28
2019-02-04T11:10:57.006Z,59.81
2019-02-04T11:11:57.212Z,59.33
2019-02-04T11:12:57.358Z,60.06
2019-02-04T11:13:57.527Z,60.06
2019-02-04T11:14:57.699Z,60.30
2019-02-04T11:15:57.854Z,60.79
2019-02-04T11:16:58.029Z,61.04
2019-02-04T11:17:58.207Z,61.04
2019-02-04T11:18:58.408Z,61.04
2019-02-04T11:19:58.619Z,60.79
2019-02-04T11:20:58.785Z,61.52
2019-02-04T11:22:01.513Z,62.74
2019-02-04T11:23:01.139Z,60.79
2019-02-04T11:23:59.339Z,60.55
2019-02-04T11:24:59.556Z,61.52
2019-02-04T11:25:59.705Z,62.50
2019-02-04T11:26:59.873Z,60.79
2019-02-04T11:28:00.048Z,62.50
2019-02-04T11:29:00.238Z,61.04
2019-02-04T11:30:00.363Z,61.04
2019-02-04T11:31:00.531Z,61.28
2019-02-04T11:32:00.741Z,61.52
2019-02-04T11:33:00.934Z,60.55
2019-02-04T11:34:01.036Z,61.04
2019-02-04T11:35:01.184Z,61.28
2019-02-04T11:36:01.337Z,61.52
2019-02-04T11:37:01.504Z,73.97
2019-02-04T11:38:01.746Z,68.12
2019-02-04T11:39:01.873Z,84.23
2019-02-04T11:40:02.102Z,61.52
2019-02-04T11:41:02.230Z,60.30
2019-02-04T11:42:02.941Z,60.55
2019-02-04T11:43:02.581Z,65.43
2019-02-04T11:44:04.021Z,64.21
2019-02-04T11:45:03.000Z,62.74
2019-02-04T11:46:03.185Z,61.77
2019-02-04T11:47:04.085Z,59.81
2019-02-04T11:48:03.491Z,62.01
2019-02-04T11:49:03.898Z,61.28
2019-02-04T11:50:03.911Z,61.28
2019-02-04T11:51:09.740Z,63.23
2019-02-04T11:52:04.437Z,62.26
2019-02-04T11:53:04.223Z,61.28
2019-02-04T11:54:04.367Z,61.77
2019-02-04T11:55:04.575Z,60.30
2019-02-04T11:56:04.850Z,63.23
2019-02-04T11:57:05.000Z,59.57
2019-02-04T11:58:07.705Z,63.96
2019-02-04T11:59:05.225Z,71.04
2019-02-04T12:00:05.468Z,68.85
2019-02-04T12:01:06.063Z,65.19
2019-02-04T12:02:05.705Z,61.04
2019-02-04T12:03:05.889Z,61.04
2019-02-04T12:04:06.079Z,61.52
2019-02-04T12:05:06.230Z,60.55
2019-02-04T12:06:06.402Z,61.28
2019-02-04T12:07:06.594Z,62.01
2019-02-04T12:08:06.757Z,60.79
2019-02-04T12:09:06.971Z,61.77
2019-02-04T12:10:07.083Z,61.77
2019-02-04T12:11:07.266Z,61.77
2019-02-04T12:12:07.438Z,61.04
2019-02-04T12:13:07.604Z,61.04
2019-02-04T12:14:07.767Z,62.26
2019-02-04T12:15:07.956Z,60.79
2019-02-04T12:16:08.117Z,62.01
2019-02-04T12:17:08.281Z,60.06
2019-02-04T12:18:08.448Z,59.81
2019-02-04T12:19:08.623Z,62.01
2019-02-04T12:20:08.790Z,63.23
2019-02-04T12:21:20.068Z,60.06
2019-02-04T12:22:09.127Z,59.33
2019-02-04T12:23:09.304Z,61.52
2019-02-04T12:24:09.468Z,61.04
2019-02-04T12:25:09.687Z,62.26
2019-02-04T12:26:09.833Z,62.74
2019-02-04T12:27:10.005Z,62.01
2019-02-04T12:28:10.184Z,61.28
2019-02-04T12:29:10.342Z,73.97
2019-02-04T12:30:10.504Z,65.67
2019-02-04T12:31:10.665Z,65.43
2019-02-04T12:32:10.834Z,84.96
2019-02-04T12:33:10.990Z,62.26
2019-02-04T12:34:11.151Z,62.99
2019-02-04T12:35:11.342Z,62.26
2019-02-04T12:36:11.607Z,60.55
2019-02-04T12:37:13.493Z,61.28
2019-02-04T12:38:12.715Z,60.30
2019-02-04T12:39:12.129Z,61.04
2019-02-04T12:40:12.322Z,61.52
2019-02-04T12:41:12.459Z,62.74
2019-02-04T12:42:12.654Z,61.04
2019-02-04T12:43:12.930Z,61.04
2019-02-04T12:44:12.995Z,61.04
2019-02-04T12:45:13.175Z,60.79
2019-02-04T12:46:13.374Z,61.04
2019-02-04T12:47:13.539Z,60.79
2019-02-04T12:48:13.709Z,60.30
2019-02-04T12:49:13.884Z,61.52
2019-02-04T12:50:14.045Z,62.50
2019-02-04T12:51:14.247Z,62.01
2019-02-04T12:52:14.466Z,61.77
2019-02-04T12:53:16.366Z,60.79
2019-02-04T12:54:14.766Z,62.26